sensor_id;sensor_type;location;lat;lon;timestamp;temperature;humidity
21473;DHT22;10898;48.072;11.682;2024-02-23T00:01:42;7.20;90.70
21473;DHT22;10898;48.072;11.682;2024-02-23T00:03:44;7.20;91.30
21473;DHT22;10898;48.072;11.682;2024-02-23T00:05:46;7.20;92.20
21473;DHT22;10898;48.072;11.682;2024-02-23T00:07:47;7.20;92.10
21473;DHT22;10898;48.072;11.682;2024-02-23T00:09:49;7.10;91.50
21473;DHT22;10898;48.072;11.682;2024-02-23T00:11:51;7.10;92.20
21473;DHT22;10898;48.072;11.682;2024-02-23T00:13:53;7.10;92.20
21473;DHT22;10898;48.072;11.682;2024-02-23T00:15:54;7.00;92.10
21473;DHT22;10898;48.072;11.682;2024-02-23T00:17:56;7.00;91.20
21473;DHT22;10898;48.072;11.682;2024-02-23T00:19:58;7.00;90.30
21473;DHT22;10898;48.072;11.682;2024-02-23T00:22:00;7.00;91.50
21473;DHT22;10898;48.072;11.682;2024-02-23T00:24:02;7.00;90.50
21473;DHT22;10898;48.072;11.682;2024-02-23T00:26:04;7.00;90.80
21473;DHT22;10898;48.072;11.682;2024-02-23T00:28:06;7.00;91.10
21473;DHT22;10898;48.072;11.682;2024-02-23T00:30:07;7.00;91.10
21473;DHT22;10898;48.072;11.682;2024-02-23T00:32:09;7.00;90.70
21473;DHT22;10898;48.072;11.682;2024-02-23T00:34:11;7.00;89.90
21473;DHT22;10898;48.072;11.682;2024-02-23T00:36:16;6.90;90.60
21473;DHT22;10898;48.072;11.682;2024-02-23T00:38:18;6.90;90.10
21473;DHT22;10898;48.072;11.682;2024-02-23T00:40:19;6.90;90.30
21473;DHT22;10898;48.072;11.682;2024-02-23T00:42:21;6.80;90.30
21473;DHT22;10898;48.072;11.682;2024-02-23T00:44:23;6.90;89.10
21473;DHT22;10898;48.072;11.682;2024-02-23T00:46:25;6.90;89.70
21473;DHT22;10898;48.072;11.682;2024-02-23T00:48:27;6.80;90.00
21473;DHT22;10898;48.072;11.682;2024-02-23T00:50:29;6.80;89.30
21473;DHT22;10898;48.072;11.682;2024-02-23T00:52:30;6.80;89.50
21473;DHT22;10898;48.072;11.682;2024-02-23T00:54:33;6.80;89.70
21473;DHT22;10898;48.072;11.682;2024-02-23T00:56:35;6.80;89.10
21473;DHT22;10898;48.072;11.682;2024-02-23T00:58:51;6.80;89.70
21473;DHT22;10898;48.072;11.682;2024-02-23T01:00:53;6.70;90.00
21473;DHT22;10898;48.072;11.682;2024-02-23T01:02:54;6.70;90.50
21473;DHT22;10898;48.072;11.682;2024-02-23T01:04:56;6.70;90.00
21473;DHT22;10898;48.072;11.682;2024-02-23T01:07:00;6.70;89.50
21473;DHT22;10898;48.072;11.682;2024-02-23T01:09:02;6.70;90.00
21473;DHT22;10898;48.072;11.682;2024-02-23T01:11:05;6.70;89.70
21473;DHT22;10898;48.072;11.682;2024-02-23T01:13:07;6.70;89.80
21473;DHT22;10898;48.072;11.682;2024-02-23T01:15:09;6.70;89.50
21473;DHT22;10898;48.072;11.682;2024-02-23T01:17:11;6.70;89.80
21473;DHT22;10898;48.072;11.682;2024-02-23T01:19:12;6.70;89.10
21473;DHT22;10898;48.072;11.682;2024-02-23T01:21:15;6.70;89.20
21473;DHT22;10898;48.072;11.682;2024-02-23T01:23:17;6.60;88.60
21473;DHT22;10898;48.072;11.682;2024-02-23T01:25:18;6.60;88.60
21473;DHT22;10898;48.072;11.682;2024-02-23T01:27:20;6.60;89.00
21473;DHT22;10898;48.072;11.682;2024-02-23T01:29:24;6.60;88.90
21473;DHT22;10898;48.072;11.682;2024-02-23T01:31:27;6.60;87.70
21473;DHT22;10898;48.072;11.682;2024-02-23T01:33:28;6.60;87.90
21473;DHT22;10898;48.072;11.682;2024-02-23T01:35:33;6.60;88.50
21473;DHT22;10898;48.072;11.682;2024-02-23T01:37:35;6.60;87.30
21473;DHT22;10898;48.072;11.682;2024-02-23T01:39:37;6.60;87.80
21473;DHT22;10898;48.072;11.682;2024-02-23T01:41:39;6.60;88.00
21473;DHT22;10898;48.072;11.682;2024-02-23T01:43:40;6.60;88.20
21473;DHT22;10898;48.072;11.682;2024-02-23T01:45:42;6.60;88.70
21473;DHT22;10898;48.072;11.682;2024-02-23T01:47:44;6.60;88.40
21473;DHT22;10898;48.072;11.682;2024-02-23T01:49:46;6.60;88.70
21473;DHT22;10898;48.072;11.682;2024-02-23T01:51:48;6.60;88.60
21473;DHT22;10898;48.072;11.682;2024-02-23T01:53:50;6.50;88.60
21473;DHT22;10898;48.072;11.682;2024-02-23T01:55:52;6.50;88.30
21473;DHT22;10898;48.072;11.682;2024-02-23T01:57:55;6.50;88.60
21473;DHT22;10898;48.072;11.682;2024-02-23T01:59:57;6.50;89.10
21473;DHT22;10898;48.072;11.682;2024-02-23T02:01:58;6.50;89.20
21473;DHT22;10898;48.072;11.682;2024-02-23T02:04:00;6.40;89.40
21473;DHT22;10898;48.072;11.682;2024-02-23T02:06:02;6.50;88.70
21473;DHT22;10898;48.072;11.682;2024-02-23T02:08:04;6.40;89.10
21473;DHT22;10898;48.072;11.682;2024-02-23T02:10:06;6.40;89.20
21473;DHT22;10898;48.072;11.682;2024-02-23T02:12:09;6.40;88.60
21473;DHT22;10898;48.072;11.682;2024-02-23T02:14:14;6.40;88.90
21473;DHT22;10898;48.072;11.682;2024-02-23T02:16:16;6.40;89.00
21473;DHT22;10898;48.072;11.682;2024-02-23T02:18:18;6.40;88.70
21473;DHT22;10898;48.072;11.682;2024-02-23T02:20:23;6.40;88.10
21473;DHT22;10898;48.072;11.682;2024-02-23T02:22:25;6.40;88.30
21473;DHT22;10898;48.072;11.682;2024-02-23T02:24:27;6.40;87.90
21473;DHT22;10898;48.072;11.682;2024-02-23T02:26:30;6.30;88.20
21473;DHT22;10898;48.072;11.682;2024-02-23T02:28:31;6.30;88.20
21473;DHT22;10898;48.072;11.682;2024-02-23T02:30:33;6.30;87.70
21473;DHT22;10898;48.072;11.682;2024-02-23T02:32:35;6.30;87.30
21473;DHT22;10898;48.072;11.682;2024-02-23T02:34:38;6.30;87.40
21473;DHT22;10898;48.072;11.682;2024-02-23T02:36:40;6.30;87.40
21473;DHT22;10898;48.072;11.682;2024-02-23T02:38:41;6.30;87.20
21473;DHT22;10898;48.072;11.682;2024-02-23T02:40:43;6.30;85.70
21473;DHT22;10898;48.072;11.682;2024-02-23T02:42:45;6.30;85.60
21473;DHT22;10898;48.072;11.682;2024-02-23T02:44:47;6.30;85.20
21473;DHT22;10898;48.072;11.682;2024-02-23T02:46:50;6.30;85.10
21473;DHT22;10898;48.072;11.682;2024-02-23T02:48:52;6.30;85.40
21473;DHT22;10898;48.072;11.682;2024-02-23T02:50:54;6.30;85.40
21473;DHT22;10898;48.072;11.682;2024-02-23T02:52:56;6.30;85.00
21473;DHT22;10898;48.072;11.682;2024-02-23T02:54:58;6.30;85.40
21473;DHT22;10898;48.072;11.682;2024-02-23T02:57:00;6.30;84.80
21473;DHT22;10898;48.072;11.682;2024-02-23T02:59:01;6.20;84.10
21473;DHT22;10898;48.072;11.682;2024-02-23T03:01:03;6.30;84.60
21473;DHT22;10898;48.072;11.682;2024-02-23T03:03:05;6.20;84.70
21473;DHT22;10898;48.072;11.682;2024-02-23T03:05:07;6.20;84.50
21473;DHT22;10898;48.072;11.682;2024-02-23T03:07:09;6.20;84.70
21473;DHT22;10898;48.072;11.682;2024-02-23T03:09:11;6.20;85.10
21473;DHT22;10898;48.072;11.682;2024-02-23T03:11:12;6.20;84.90
21473;DHT22;10898;48.072;11.682;2024-02-23T03:13:14;6.20;85.50
21473;DHT22;10898;48.072;11.682;2024-02-23T03:15:16;6.20;85.00
21473;DHT22;10898;48.072;11.682;2024-02-23T03:17:18;6.10;85.60
21473;DHT22;10898;48.072;11.682;2024-02-23T03:19:20;6.10;85.40
21473;DHT22;10898;48.072;11.682;2024-02-23T03:21:24;6.20;85.50
21473;DHT22;10898;48.072;11.682;2024-02-23T03:23:25;6.20;86.30
21473;DHT22;10898;48.072;11.682;2024-02-23T03:25:27;6.10;85.30
21473;DHT22;10898;48.072;11.682;2024-02-23T03:27:29;6.10;85.70
21473;DHT22;10898;48.072;11.682;2024-02-23T03:29:31;6.10;86.50
21473;DHT22;10898;48.072;11.682;2024-02-23T03:31:33;6.10;84.80
21473;DHT22;10898;48.072;11.682;2024-02-23T03:33:35;6.10;84.80
21473;DHT22;10898;48.072;11.682;2024-02-23T03:35:37;6.10;84.60
21473;DHT22;10898;48.072;11.682;2024-02-23T03:37:39;6.00;85.20
21473;DHT22;10898;48.072;11.682;2024-02-23T03:39:40;6.00;85.00
21473;DHT22;10898;48.072;11.682;2024-02-23T03:41:42;6.00;84.80
21473;DHT22;10898;48.072;11.682;2024-02-23T03:43:44;6.00;84.90
21473;DHT22;10898;48.072;11.682;2024-02-23T03:45:45;6.00;84.40
21473;DHT22;10898;48.072;11.682;2024-02-23T03:47:47;6.00;84.80
21473;DHT22;10898;48.072;11.682;2024-02-23T03:49:49;5.90;84.90
21473;DHT22;10898;48.072;11.682;2024-02-23T03:51:51;5.90;84.40
21473;DHT22;10898;48.072;11.682;2024-02-23T03:53:52;5.90;84.50
21473;DHT22;10898;48.072;11.682;2024-02-23T03:55:54;5.90;85.00
21473;DHT22;10898;48.072;11.682;2024-02-23T03:57:56;5.90;85.00
21473;DHT22;10898;48.072;11.682;2024-02-23T03:59:57;5.80;85.10
21473;DHT22;10898;48.072;11.682;2024-02-23T04:01:59;5.80;84.70
21473;DHT22;10898;48.072;11.682;2024-02-23T04:04:01;5.80;85.10
21473;DHT22;10898;48.072;11.682;2024-02-23T04:06:03;5.80;85.20
21473;DHT22;10898;48.072;11.682;2024-02-23T04:08:05;5.80;86.00
21473;DHT22;10898;48.072;11.682;2024-02-23T04:10:07;5.80;86.20
21473;DHT22;10898;48.072;11.682;2024-02-23T04:12:09;5.80;86.40
21473;DHT22;10898;48.072;11.682;2024-02-23T04:14:11;5.80;86.60
21473;DHT22;10898;48.072;11.682;2024-02-23T04:16:12;5.80;87.20
21473;DHT22;10898;48.072;11.682;2024-02-23T04:18:14;5.70;87.50
21473;DHT22;10898;48.072;11.682;2024-02-23T04:20:16;5.70;87.50
21473;DHT22;10898;48.072;11.682;2024-02-23T04:22:18;5.70;87.30
21473;DHT22;10898;48.072;11.682;2024-02-23T04:24:19;5.70;87.70
21473;DHT22;10898;48.072;11.682;2024-02-23T04:26:23;5.70;87.30
21473;DHT22;10898;48.072;11.682;2024-02-23T04:28:25;5.60;87.50
21473;DHT22;10898;48.072;11.682;2024-02-23T04:30:32;5.60;86.60
21473;DHT22;10898;48.072;11.682;2024-02-23T04:32:33;5.60;84.60
21473;DHT22;10898;48.072;11.682;2024-02-23T04:34:35;5.50;85.00
21473;DHT22;10898;48.072;11.682;2024-02-23T04:36:37;5.50;85.50
21473;DHT22;10898;48.072;11.682;2024-02-23T04:38:39;5.50;85.10
21473;DHT22;10898;48.072;11.682;2024-02-23T04:40:41;5.40;84.80
21473;DHT22;10898;48.072;11.682;2024-02-23T04:42:43;5.30;85.40
21473;DHT22;10898;48.072;11.682;2024-02-23T04:44:45;5.30;85.30
21473;DHT22;10898;48.072;11.682;2024-02-23T04:46:47;5.30;86.10
21473;DHT22;10898;48.072;11.682;2024-02-23T04:48:50;5.30;86.40
21473;DHT22;10898;48.072;11.682;2024-02-23T04:50:51;5.30;86.40
21473;DHT22;10898;48.072;11.682;2024-02-23T04:52:53;5.10;87.00
21473;DHT22;10898;48.072;11.682;2024-02-23T04:54:55;5.10;87.30
21473;DHT22;10898;48.072;11.682;2024-02-23T04:56:57;5.10;87.10
21473;DHT22;10898;48.072;11.682;2024-02-23T04:58:58;5.00;88.20
21473;DHT22;10898;48.072;11.682;2024-02-23T05:01:00;5.00;88.50
21473;DHT22;10898;48.072;11.682;2024-02-23T05:03:02;5.00;89.00
21473;DHT22;10898;48.072;11.682;2024-02-23T05:05:05;5.00;89.20
21473;DHT22;10898;48.072;11.682;2024-02-23T05:07:07;5.00;89.80
21473;DHT22;10898;48.072;11.682;2024-02-23T05:09:09;5.10;89.80
21473;DHT22;10898;48.072;11.682;2024-02-23T05:11:11;5.00;90.40
21473;DHT22;10898;48.072;11.682;2024-02-23T05:13:15;5.00;90.40
21473;DHT22;10898;48.072;11.682;2024-02-23T05:15:17;5.00;90.90
21473;DHT22;10898;48.072;11.682;2024-02-23T05:17:19;5.00;90.90
21473;DHT22;10898;48.072;11.682;2024-02-23T05:19:20;5.00;91.50
21473;DHT22;10898;48.072;11.682;2024-02-23T05:21:22;5.00;92.10
21473;DHT22;10898;48.072;11.682;2024-02-23T05:23:24;5.00;92.20
21473;DHT22;10898;48.072;11.682;2024-02-23T05:25:25;5.00;92.30
21473;DHT22;10898;48.072;11.682;2024-02-23T05:27:30;5.10;92.80
21473;DHT22;10898;48.072;11.682;2024-02-23T05:29:32;5.10;93.20
21473;DHT22;10898;48.072;11.682;2024-02-23T05:31:45;5.10;93.20
21473;DHT22;10898;48.072;11.682;2024-02-23T05:33:47;5.10;93.30
21473;DHT22;10898;48.072;11.682;2024-02-23T05:35:50;5.10;93.00
21473;DHT22;10898;48.072;11.682;2024-02-23T05:37:52;5.10;93.20
21473;DHT22;10898;48.072;11.682;2024-02-23T05:39:54;5.10;92.50
21473;DHT22;10898;48.072;11.682;2024-02-23T05:41:55;5.10;92.40
21473;DHT22;10898;48.072;11.682;2024-02-23T05:43:58;5.00;92.60
21473;DHT22;10898;48.072;11.682;2024-02-23T05:46:00;5.00;92.80
21473;DHT22;10898;48.072;11.682;2024-02-23T05:48:02;5.00;92.90
21473;DHT22;10898;48.072;11.682;2024-02-23T05:50:04;5.00;93.00
21473;DHT22;10898;48.072;11.682;2024-02-23T05:52:06;5.00;92.50
21473;DHT22;10898;48.072;11.682;2024-02-23T05:54:08;5.00;92.40
21473;DHT22;10898;48.072;11.682;2024-02-23T05:56:10;5.10;92.60
21473;DHT22;10898;48.072;11.682;2024-02-23T05:58:12;5.10;92.20
21473;DHT22;10898;48.072;11.682;2024-02-23T06:00:15;5.10;92.40
21473;DHT22;10898;48.072;11.682;2024-02-23T06:02:20;5.10;92.60
21473;DHT22;10898;48.072;11.682;2024-02-23T06:04:22;5.10;92.60
21473;DHT22;10898;48.072;11.682;2024-02-23T06:06:24;5.10;92.30
21473;DHT22;10898;48.072;11.682;2024-02-23T06:08:26;5.10;91.90
21473;DHT22;10898;48.072;11.682;2024-02-23T06:10:28;5.10;91.70
21473;DHT22;10898;48.072;11.682;2024-02-23T06:12:29;5.10;91.80
21473;DHT22;10898;48.072;11.682;2024-02-23T06:14:31;5.10;91.50
21473;DHT22;10898;48.072;11.682;2024-02-23T06:16:33;5.10;91.10
21473;DHT22;10898;48.072;11.682;2024-02-23T06:18:35;5.10;90.40
21473;DHT22;10898;48.072;11.682;2024-02-23T06:20:37;5.20;90.20
21473;DHT22;10898;48.072;11.682;2024-02-23T06:22:39;5.10;90.30
21473;DHT22;10898;48.072;11.682;2024-02-23T06:24:40;5.20;90.40
21473;DHT22;10898;48.072;11.682;2024-02-23T06:26:42;5.20;89.90
21473;DHT22;10898;48.072;11.682;2024-02-23T06:28:44;5.20;89.30
21473;DHT22;10898;48.072;11.682;2024-02-23T06:30:46;5.20;89.30
21473;DHT22;10898;48.072;11.682;2024-02-23T06:32:47;5.20;88.80
21473;DHT22;10898;48.072;11.682;2024-02-23T06:34:49;5.20;88.70
21473;DHT22;10898;48.072;11.682;2024-02-23T06:36:51;5.10;88.50
21473;DHT22;10898;48.072;11.682;2024-02-23T06:38:53;5.10;88.90
21473;DHT22;10898;48.072;11.682;2024-02-23T06:40:55;5.10;88.80
21473;DHT22;10898;48.072;11.682;2024-02-23T06:42:57;5.10;88.90
21473;DHT22;10898;48.072;11.682;2024-02-23T06:44:59;5.10;88.60
21473;DHT22;10898;48.072;11.682;2024-02-23T06:47:01;5.20;88.90
21473;DHT22;10898;48.072;11.682;2024-02-23T06:49:03;5.20;89.00
21473;DHT22;10898;48.072;11.682;2024-02-23T06:51:06;5.10;88.50
21473;DHT22;10898;48.072;11.682;2024-02-23T06:53:11;5.10;88.40
21473;DHT22;10898;48.072;11.682;2024-02-23T06:55:13;5.20;88.50
21473;DHT22;10898;48.072;11.682;2024-02-23T06:57:14;5.20;88.30
21473;DHT22;10898;48.072;11.682;2024-02-23T06:59:19;5.20;87.80
21473;DHT22;10898;48.072;11.682;2024-02-23T07:01:21;5.20;87.00
21473;DHT22;10898;48.072;11.682;2024-02-23T07:03:23;5.10;87.20
21473;DHT22;10898;48.072;11.682;2024-02-23T07:05:25;5.10;86.50
21473;DHT22;10898;48.072;11.682;2024-02-23T07:07:27;5.10;87.10
21473;DHT22;10898;48.072;11.682;2024-02-23T07:09:30;5.20;87.50
21473;DHT22;10898;48.072;11.682;2024-02-23T07:11:32;5.20;86.60
21473;DHT22;10898;48.072;11.682;2024-02-23T07:13:33;5.10;86.80
21473;DHT22;10898;48.072;11.682;2024-02-23T07:15:35;5.20;86.30
21473;DHT22;10898;48.072;11.682;2024-02-23T07:17:37;5.20;86.50
21473;DHT22;10898;48.072;11.682;2024-02-23T07:19:39;5.20;87.40
21473;DHT22;10898;48.072;11.682;2024-02-23T07:21:41;5.30;87.80
21473;DHT22;10898;48.072;11.682;2024-02-23T07:23:44;5.30;88.40
21473;DHT22;10898;48.072;11.682;2024-02-23T07:25:46;5.30;88.80
21473;DHT22;10898;48.072;11.682;2024-02-23T07:27:50;5.30;88.00
21473;DHT22;10898;48.072;11.682;2024-02-23T07:29:52;5.30;88.30
21473;DHT22;10898;48.072;11.682;2024-02-23T07:31:53;5.20;88.40
21473;DHT22;10898;48.072;11.682;2024-02-23T07:33:55;5.20;88.70
21473;DHT22;10898;48.072;11.682;2024-02-23T07:35:57;5.20;88.60
21473;DHT22;10898;48.072;11.682;2024-02-23T07:37:59;5.30;88.40
21473;DHT22;10898;48.072;11.682;2024-02-23T07:40:01;5.30;87.60
21473;DHT22;10898;48.072;11.682;2024-02-23T07:42:08;5.30;86.30
21473;DHT22;10898;48.072;11.682;2024-02-23T07:44:12;5.20;85.90
21473;DHT22;10898;48.072;11.682;2024-02-23T07:46:13;5.30;85.70
21473;DHT22;10898;48.072;11.682;2024-02-23T07:48:15;5.30;85.20
21473;DHT22;10898;48.072;11.682;2024-02-23T07:50:17;5.20;85.90
21473;DHT22;10898;48.072;11.682;2024-02-23T07:52:20;5.20;85.80
21473;DHT22;10898;48.072;11.682;2024-02-23T07:54:25;5.10;85.50
21473;DHT22;10898;48.072;11.682;2024-02-23T07:56:27;5.10;85.90
21473;DHT22;10898;48.072;11.682;2024-02-23T07:58:28;5.20;86.10
21473;DHT22;10898;48.072;11.682;2024-02-23T08:00:30;5.20;86.30
21473;DHT22;10898;48.072;11.682;2024-02-23T08:02:32;5.30;85.80
21473;DHT22;10898;48.072;11.682;2024-02-23T08:04:34;5.30;85.90
21473;DHT22;10898;48.072;11.682;2024-02-23T08:06:36;5.30;85.80
21473;DHT22;10898;48.072;11.682;2024-02-23T08:08:37;5.30;85.70
21473;DHT22;10898;48.072;11.682;2024-02-23T08:10:39;5.30;86.20
21473;DHT22;10898;48.072;11.682;2024-02-23T08:12:41;5.30;86.70
21473;DHT22;10898;48.072;11.682;2024-02-23T08:14:44;5.40;86.60
21473;DHT22;10898;48.072;11.682;2024-02-23T08:16:47;5.40;86.60
21473;DHT22;10898;48.072;11.682;2024-02-23T08:18:48;5.50;86.60
21473;DHT22;10898;48.072;11.682;2024-02-23T08:20:51;5.50;86.50
21473;DHT22;10898;48.072;11.682;2024-02-23T08:22:52;5.50;85.90
21473;DHT22;10898;48.072;11.682;2024-02-23T08:24:54;5.50;86.40
21473;DHT22;10898;48.072;11.682;2024-02-23T08:26:56;5.50;86.00
21473;DHT22;10898;48.072;11.682;2024-02-23T08:28:57;5.50;84.90
21473;DHT22;10898;48.072;11.682;2024-02-23T08:31:00;5.60;84.60
21473;DHT22;10898;48.072;11.682;2024-02-23T08:33:02;5.60;84.10
21473;DHT22;10898;48.072;11.682;2024-02-23T08:35:04;5.60;84.10
21473;DHT22;10898;48.072;11.682;2024-02-23T08:37:06;5.70;84.10
21473;DHT22;10898;48.072;11.682;2024-02-23T08:39:07;5.70;83.50
21473;DHT22;10898;48.072;11.682;2024-02-23T08:41:10;5.70;83.00
21473;DHT22;10898;48.072;11.682;2024-02-23T08:43:13;5.70;82.60
21473;DHT22;10898;48.072;11.682;2024-02-23T08:45:15;5.70;82.30
21473;DHT22;10898;48.072;11.682;2024-02-23T08:47:16;5.70;82.80
21473;DHT22;10898;48.072;11.682;2024-02-23T08:49:18;5.70;82.50
21473;DHT22;10898;48.072;11.682;2024-02-23T08:51:20;5.70;81.90
21473;DHT22;10898;48.072;11.682;2024-02-23T08:53:22;5.70;81.80
21473;DHT22;10898;48.072;11.682;2024-02-23T08:55:23;5.70;81.80
21473;DHT22;10898;48.072;11.682;2024-02-23T08:57:25;5.70;82.40
21473;DHT22;10898;48.072;11.682;2024-02-23T08:59:27;5.70;81.30
21473;DHT22;10898;48.072;11.682;2024-02-23T09:01:29;5.70;80.20
21473;DHT22;10898;48.072;11.682;2024-02-23T09:03:30;5.70;79.90
21473;DHT22;10898;48.072;11.682;2024-02-23T09:05:33;5.70;79.20
21473;DHT22;10898;48.072;11.682;2024-02-23T09:07:35;5.70;79.20
21473;DHT22;10898;48.072;11.682;2024-02-23T09:09:37;5.70;78.00
21473;DHT22;10898;48.072;11.682;2024-02-23T09:11:39;5.70;77.70
21473;DHT22;10898;48.072;11.682;2024-02-23T09:13:41;5.70;77.40
21473;DHT22;10898;48.072;11.682;2024-02-23T09:15:43;5.70;77.90
21473;DHT22;10898;48.072;11.682;2024-02-23T09:17:45;5.70;77.90
21473;DHT22;10898;48.072;11.682;2024-02-23T09:19:47;5.60;77.90
21473;DHT22;10898;48.072;11.682;2024-02-23T09:21:49;5.70;78.10
21473;DHT22;10898;48.072;11.682;2024-02-23T09:23:51;5.70;78.20
21473;DHT22;10898;48.072;11.682;2024-02-23T09:25:52;5.70;78.60
21473;DHT22;10898;48.072;11.682;2024-02-23T09:27:57;5.70;78.70
21473;DHT22;10898;48.072;11.682;2024-02-23T09:29:59;5.70;78.70
21473;DHT22;10898;48.072;11.682;2024-02-23T09:32:01;5.60;79.10
21473;DHT22;10898;48.072;11.682;2024-02-23T09:34:02;5.60;79.20
21473;DHT22;10898;48.072;11.682;2024-02-23T09:36:04;5.60;80.10
21473;DHT22;10898;48.072;11.682;2024-02-23T09:38:06;5.60;80.80
21473;DHT22;10898;48.072;11.682;2024-02-23T09:40:08;5.50;80.40
21473;DHT22;10898;48.072;11.682;2024-02-23T09:42:10;5.50;80.80
21473;DHT22;10898;48.072;11.682;2024-02-23T09:44:15;5.50;81.00
21473;DHT22;10898;48.072;11.682;2024-02-23T09:46:17;5.50;81.70
21473;DHT22;10898;48.072;11.682;2024-02-23T09:48:19;5.40;82.10
21473;DHT22;10898;48.072;11.682;2024-02-23T09:50:22;5.30;82.60
21473;DHT22;10898;48.072;11.682;2024-02-23T09:52:25;5.30;83.00
21473;DHT22;10898;48.072;11.682;2024-02-23T09:54:30;5.20;82.90
21473;DHT22;10898;48.072;11.682;2024-02-23T09:56:32;5.20;83.70
21473;DHT22;10898;48.072;11.682;2024-02-23T09:58:38;5.10;84.30
21473;DHT22;10898;48.072;11.682;2024-02-23T10:00:40;5.10;84.60
21473;DHT22;10898;48.072;11.682;2024-02-23T10:02:42;5.10;84.70
21473;DHT22;10898;48.072;11.682;2024-02-23T10:04:45;5.00;85.40
21473;DHT22;10898;48.072;11.682;2024-02-23T10:06:46;5.10;85.70
21473;DHT22;10898;48.072;11.682;2024-02-23T10:08:48;5.10;84.80
21473;DHT22;10898;48.072;11.682;2024-02-23T10:10:50;5.00;84.70
21473;DHT22;10898;48.072;11.682;2024-02-23T10:12:53;5.00;85.30
21473;DHT22;10898;48.072;11.682;2024-02-23T10:14:54;5.00;85.70
21473;DHT22;10898;48.072;11.682;2024-02-23T10:16:56;5.00;85.50
21473;DHT22;10898;48.072;11.682;2024-02-23T10:18:58;5.00;85.70
21473;DHT22;10898;48.072;11.682;2024-02-23T10:21:00;5.00;86.20
21473;DHT22;10898;48.072;11.682;2024-02-23T10:23:01;5.00;86.60
21473;DHT22;10898;48.072;11.682;2024-02-23T10:25:04;5.00;86.40
21473;DHT22;10898;48.072;11.682;2024-02-23T10:27:06;5.00;85.50
21473;DHT22;10898;48.072;11.682;2024-02-23T10:29:08;5.00;85.50
21473;DHT22;10898;48.072;11.682;2024-02-23T10:31:12;5.00;85.80
21473;DHT22;10898;48.072;11.682;2024-02-23T10:33:14;5.00;85.60
21473;DHT22;10898;48.072;11.682;2024-02-23T10:35:16;5.00;86.00
21473;DHT22;10898;48.072;11.682;2024-02-23T10:37:18;5.00;84.90
21473;DHT22;10898;48.072;11.682;2024-02-23T10:39:20;5.00;85.30
21473;DHT22;10898;48.072;11.682;2024-02-23T10:41:25;5.00;85.20
21473;DHT22;10898;48.072;11.682;2024-02-23T10:43:36;5.00;85.60
21473;DHT22;10898;48.072;11.682;2024-02-23T10:45:45;5.00;84.70
21473;DHT22;10898;48.072;11.682;2024-02-23T10:47:47;5.00;85.00
21473;DHT22;10898;48.072;11.682;2024-02-23T10:49:50;5.00;85.00
21473;DHT22;10898;48.072;11.682;2024-02-23T10:51:52;5.00;84.90
21473;DHT22;10898;48.072;11.682;2024-02-23T10:53:53;4.90;85.40
21473;DHT22;10898;48.072;11.682;2024-02-23T10:55:56;5.00;86.00
21473;DHT22;10898;48.072;11.682;2024-02-23T10:58:00;5.00;85.70
21473;DHT22;10898;48.072;11.682;2024-02-23T11:00:02;5.00;85.30
21473;DHT22;10898;48.072;11.682;2024-02-23T11:02:11;5.00;85.20
21473;DHT22;10898;48.072;11.682;2024-02-23T11:04:13;5.00;85.60
21473;DHT22;10898;48.072;11.682;2024-02-23T11:06:15;5.00;86.20
21473;DHT22;10898;48.072;11.682;2024-02-23T11:08:18;5.00;85.40
21473;DHT22;10898;48.072;11.682;2024-02-23T11:10:21;5.00;85.70
21473;DHT22;10898;48.072;11.682;2024-02-23T11:12:30;5.00;86.10
21473;DHT22;10898;48.072;11.682;2024-02-23T11:14:32;5.00;86.20
21473;DHT22;10898;48.072;11.682;2024-02-23T11:16:38;5.00;86.20
21473;DHT22;10898;48.072;11.682;2024-02-23T11:18:40;5.00;85.70
21473;DHT22;10898;48.072;11.682;2024-02-23T11:20:43;5.00;84.80
21473;DHT22;10898;48.072;11.682;2024-02-23T11:22:45;5.00;84.60
21473;DHT22;10898;48.072;11.682;2024-02-23T11:24:53;5.00;85.10
21473;DHT22;10898;48.072;11.682;2024-02-23T11:26:59;5.00;84.30
21473;DHT22;10898;48.072;11.682;2024-02-23T11:29:10;5.00;84.10
21473;DHT22;10898;48.072;11.682;2024-02-23T11:31:15;5.00;84.30
21473;DHT22;10898;48.072;11.682;2024-02-23T11:33:25;5.00;84.30
21473;DHT22;10898;48.072;11.682;2024-02-23T11:35:27;5.00;84.10
21473;DHT22;10898;48.072;11.682;2024-02-23T11:37:29;5.10;84.60
21473;DHT22;10898;48.072;11.682;2024-02-23T11:39:31;5.10;84.20
21473;DHT22;10898;48.072;11.682;2024-02-23T11:41:33;5.10;83.30
21473;DHT22;10898;48.072;11.682;2024-02-23T11:43:35;5.10;83.80
21473;DHT22;10898;48.072;11.682;2024-02-23T11:45:37;5.10;83.70
21473;DHT22;10898;48.072;11.682;2024-02-23T11:47:38;5.10;83.80
21473;DHT22;10898;48.072;11.682;2024-02-23T11:49:41;5.10;83.20
21473;DHT22;10898;48.072;11.682;2024-02-23T11:51:42;5.20;83.90
21473;DHT22;10898;48.072;11.682;2024-02-23T11:53:44;5.30;82.90
21473;DHT22;10898;48.072;11.682;2024-02-23T11:55:47;5.20;81.90
21473;DHT22;10898;48.072;11.682;2024-02-23T11:57:49;5.10;80.80
21473;DHT22;10898;48.072;11.682;2024-02-23T12:00:02;5.10;80.80
21473;DHT22;10898;48.072;11.682;2024-02-23T12:02:04;5.10;81.20
21473;DHT22;10898;48.072;11.682;2024-02-23T12:04:06;5.00;81.80
21473;DHT22;10898;48.072;11.682;2024-02-23T12:06:08;5.00;81.20
21473;DHT22;10898;48.072;11.682;2024-02-23T12:08:11;5.00;81.90
21473;DHT22;10898;48.072;11.682;2024-02-23T12:10:13;5.10;81.70
21473;DHT22;10898;48.072;11.682;2024-02-23T12:12:15;5.10;81.00
21473;DHT22;10898;48.072;11.682;2024-02-23T12:14:17;5.00;80.80
21473;DHT22;10898;48.072;11.682;2024-02-23T12:16:20;5.10;81.30
21473;DHT22;10898;48.072;11.682;2024-02-23T12:18:22;5.10;80.40
21473;DHT22;10898;48.072;11.682;2024-02-23T12:20:33;5.10;80.40
21473;DHT22;10898;48.072;11.682;2024-02-23T12:22:36;5.00;79.70
21473;DHT22;10898;48.072;11.682;2024-02-23T12:24:39;5.00;80.40
21473;DHT22;10898;48.072;11.682;2024-02-23T12:26:43;5.10;80.60
21473;DHT22;10898;48.072;11.682;2024-02-23T12:28:45;5.10;79.70
21473;DHT22;10898;48.072;11.682;2024-02-23T12:30:57;5.00;79.70
21473;DHT22;10898;48.072;11.682;2024-02-23T12:33:05;5.00;79.90
21473;DHT22;10898;48.072;11.682;2024-02-23T12:35:07;5.00;80.60
21473;DHT22;10898;48.072;11.682;2024-02-23T12:37:09;5.00;80.30
21473;DHT22;10898;48.072;11.682;2024-02-23T12:39:10;5.00;79.90
21473;DHT22;10898;48.072;11.682;2024-02-23T12:41:12;5.00;80.50
21473;DHT22;10898;48.072;11.682;2024-02-23T12:43:14;5.00;80.00
21473;DHT22;10898;48.072;11.682;2024-02-23T12:45:16;5.00;80.00
21473;DHT22;10898;48.072;11.682;2024-02-23T12:47:17;4.90;80.30
21473;DHT22;10898;48.072;11.682;2024-02-23T12:49:19;4.90;80.30
21473;DHT22;10898;48.072;11.682;2024-02-23T12:51:24;4.80;79.70
21473;DHT22;10898;48.072;11.682;2024-02-23T12:53:32;4.80;80.00